Time,TemperatureF,DewpointF,PressureIn,WindDirection,WindDirectionDegrees,WindSpeedMPH,WindSpeedGustMPH,Humidity,HourlyPrecipIn,Conditions,Clouds,dailyrainin,SoftwareType,DateUTC
2013-04-13 00:00:00,36.3,32.5,29.93,NW,314,0.0,-999.0,81,0.00,,,0.00,Custom/Perl,2013-04-13 05:00:00,
2013-04-13 00:06:00,36.0,32.4,29.93,NW,314,0.0,-999.0,82,0.00,,,0.00,Custom/Perl,2013-04-13 05:06:00,
2013-04-13 00:11:00,35.8,32.4,29.93,NW,314,0.0,-999.0,83,0.00,,,0.00,Custom/Perl,2013-04-13 05:11:00,
2013-04-13 00:16:00,35.9,32.5,29.93,NW,314,0.0,-999.0,83,0.00,,,0.00,Custom/Perl,2013-04-13 05:16:00,
2013-04-13 00:22:00,36.1,32.7,29.93,NW,314,0.0,-999.0,83,0.00,,,0.00,Custom/Perl,2013-04-13 05:22:00,
2013-04-13 00:27:00,36.1,32.7,29.93,NW,314,0.0,-999.0,83,0.00,,,0.00,Custom/Perl,2013-04-13 05:27:00,
2013-04-13 00:32:00,36.2,32.8,29.93,NW,314,0.0,-999.0,83,0.00,,,0.00,Custom/Perl,2013-04-13 05:32:00,
2013-04-13 00:38:00,36.1,32.7,29.93,NW,314,0.0,-999.0,83,0.00,,,0.00,Custom/Perl,2013-04-13 05:38:00,
2013-04-13 00:43:00,36.1,32.9,29.93,NW,314,0.0,-999.0,84,0.00,,,0.00,Custom/Perl,2013-04-13 05:43:00,
2013-04-13 00:48:00,36.1,32.9,29.93,NW,314,0.0,-999.0,84,0.00,,,0.00,Custom/Perl,2013-04-13 05:48:00,
2013-04-13 00:53:00,36.4,33.2,29.93,NW,314,0.0,-999.0,84,0.00,,,0.00,Custom/Perl,2013-04-13 05:53:00,
2013-04-13 00:59:00,36.4,33.0,29.92,NW,314,0.0,-999.0,83,0.00,,,0.00,Custom/Perl,2013-04-13 05:59:00,
2013-04-13 01:04:00,36.7,33.3,29.93,NW,314,0.0,-999.0,83,0.00,,,0.00,Custom/Perl,2013-04-13 06:04:00,
2013-04-13 01:09:00,36.7,33.3,29.93,NW,314,0.0,-999.0,83,0.00,,,0.00,Custom/Perl,2013-04-13 06:09:00,
2013-04-13 01:15:00,36.6,33.2,29.93,NW,314,0.0,-999.0,83,0.00,,,0.00,Custom/Perl,2013-04-13 06:15:00,
2013-04-13 01:20:00,36.6,33.2,29.93,NW,314,0.0,-999.0,83,0.00,,,0.00,Custom/Perl,2013-04-13 06:20:00,
2013-04-13 01:26:00,36.9,33.3,29.92,North,352,0.0,-999.0,82,0.00,,,0.00,Custom/Perl,2013-04-13 06:26:00,
2013-04-13 01:32:00,37.6,33.6,29.92,North,6,0.0,-999.0,80,0.00,,,0.00,Custom/Perl,2013-04-13 06:32:00,
2013-04-13 01:37:00,37.7,33.5,29.92,North,6,0.0,-999.0,79,0.00,,,0.00,Custom/Perl,2013-04-13 06:37:00,
2013-04-13 01:43:00,37.5,33.5,29.93,North,6,0.0,-999.0,80,0.00,,,0.00,Custom/Perl,2013-04-13 06:43:00,
2013-04-13 01:49:00,36.6,33.0,29.93,North,6,0.0,-999.0,82,0.00,,,0.00,Custom/Perl,2013-04-13 06:49:00,
2013-04-13 01:54:00,36.1,32.7,29.93,North,6,0.0,-999.0,83,0.00,,,0.00,Custom/Perl,2013-04-13 06:54:00,
2013-04-13 01:59:00,36.0,32.6,29.94,North,6,0.0,-999.0,83,0.00,,,0.00,Custom/Perl,2013-04-13 06:59:00,
2013-04-13 02:04:00,35.9,32.5,29.94,North,6,0.0,-999.0,83,0.00,,,0.00,Custom/Perl,2013-04-13 07:04:00,
2013-04-13 02:10:00,35.6,32.2,29.94,North,6,0.0,-999.0,83,0.00,,,0.00,Custom/Perl,2013-04-13 07:10:00,
2013-04-13 02:16:00,35.5,32.1,29.94,North,6,0.0,-999.0,83,0.00,,,0.00,Custom/Perl,2013-04-13 07:16:00,
2013-04-13 02:21:00,35.5,32.3,29.93,North,6,0.0,-999.0,84,0.00,,,0.00,Custom/Perl,2013-04-13 07:21:00,
2013-04-13 02:27:00,35.5,32.1,29.93,North,6,0.0,-999.0,83,0.00,,,0.00,Custom/Perl,2013-04-13 07:27:00,
2013-04-13 02:33:00,35.1,31.7,29.93,North,6,0.0,-999.0,83,0.00,,,0.00,Custom/Perl,2013-04-13 07:33:00,
2013-04-13 02:38:00,34.6,31.4,29.93,North,6,0.0,-999.0,84,0.00,,,0.00,Custom/Perl,2013-04-13 07:38:00,
2013-04-13 02:44:00,34.2,31.2,29.93,North,6,0.0,-999.0,85,0.00,,,0.00,Custom/Perl,2013-04-13 07:44:00,
2013-04-13 02:49:00,33.8,30.8,29.93,North,6,0.0,-999.0,85,0.00,,,0.00,Custom/Perl,2013-04-13 07:49:00,
2013-04-13 02:54:00,33.3,30.5,29.93,North,6,0.0,-999.0,86,0.00,,,0.00,Custom/Perl,2013-04-13 07:54:00,
2013-04-13 03:00:00,32.8,30.2,29.92,North,6,0.0,-999.0,87,0.00,,,0.00,Custom/Perl,2013-04-13 08:00:00,
2013-04-13 03:07:00,32.5,30.1,29.93,North,6,0.0,-999.0,88,0.00,,,0.00,Custom/Perl,2013-04-13 08:07:00,
2013-04-13 03:12:00,32.4,30.2,29.92,North,6,0.0,-999.0,89,0.00,,,0.00,Custom/Perl,2013-04-13 08:12:00,
2013-04-13 03:17:00,32.4,30.4,29.92,North,6,0.0,-999.0,90,0.00,,,0.00,Custom/Perl,2013-04-13 08:17:00,
2013-04-13 03:22:00,32.4,30.2,29.92,North,6,0.0,-999.0,89,0.00,,,0.00,Custom/Perl,2013-04-13 08:22:00,
2013-04-13 03:27:00,32.2,29.8,29.92,North,6,0.0,-999.0,88,0.00,,,0.00,Custom/Perl,2013-04-13 08:27:00,
2013-04-13 03:33:00,31.8,29.4,29.92,North,6,0.0,-999.0,88,0.00,,,0.00,Custom/Perl,2013-04-13 08:33:00,
2013-04-13 03:40:00,31.6,29.6,29.93,North,6,0.0,-999.0,90,0.00,,,0.00,Custom/Perl,2013-04-13 08:40:00,
2013-04-13 03:45:00,31.4,29.4,29.93,North,6,0.0,-999.0,90,0.00,,,0.00,Custom/Perl,2013-04-13 08:45:00,
2013-04-13 03:51:00,31.1,28.9,29.93,North,6,0.0,-999.0,89,0.00,,,0.00,Custom/Perl,2013-04-13 08:51:00,
2013-04-13 03:56:00,30.8,28.8,29.93,North,6,0.0,-999.0,90,0.00,,,0.00,Custom/Perl,2013-04-13 08:56:00,
2013-04-13 04:02:00,30.9,29.1,29.93,North,6,0.0,-999.0,91,0.00,,,0.00,Custom/Perl,2013-04-13 09:02:00,
2013-04-13 04:07:00,31.7,29.9,29.93,North,6,0.0,-999.0,91,0.00,,,0.00,Custom/Perl,2013-04-13 09:07:00,
2013-04-13 04:13:00,31.9,29.9,29.93,North,6,0.0,-999.0,90,0.00,,,0.00,Custom/Perl,2013-04-13 09:13:00,
2013-04-13 04:18:00,32.0,30.0,29.93,North,6,0.0,-999.0,90,0.00,,,0.00,Custom/Perl,2013-04-13 09:18:00,
2013-04-13 04:24:00,32.2,30.2,29.93,North,6,0.0,-999.0,90,0.00,,,0.00,Custom/Perl,2013-04-13 09:24:00,
2013-04-13 04:31:00,32.3,30.3,29.93,North,6,0.0,-999.0,90,0.00,,,0.00,Custom/Perl,2013-04-13 09:31:00,
2013-04-13 04:36:00,32.6,30.8,29.94,North,6,0.0,-999.0,91,0.00,,,0.00,Custom/Perl,2013-04-13 09:36:00,
2013-04-13 04:41:00,33.3,31.3,29.93,NNW,337,0.0,-999.0,90,0.00,,,0.00,Custom/Perl,2013-04-13 09:41:00,
2013-04-13 04:46:00,33.7,31.5,29.93,NNW,337,0.0,-999.0,89,0.00,,,0.00,Custom/Perl,2013-04-13 09:46:00,
2013-04-13 04:52:00,34.3,32.1,29.93,NNW,337,0.0,-999.0,89,0.00,,,0.00,Custom/Perl,2013-04-13 09:52:00,
2013-04-13 04:57:00,34.5,32.3,29.93,NNW,337,0.0,-999.0,89,0.00,,,0.00,Custom/Perl,2013-04-13 09:57:00,
2013-04-13 05:02:00,34.5,32.1,29.92,NNW,337,0.0,-999.0,88,0.00,,,0.00,Custom/Perl,2013-04-13 10:02:00,
2013-04-13 05:08:00,34.4,31.8,29.93,NNW,337,0.0,-999.0,87,0.00,,,0.00,Custom/Perl,2013-04-13 10:08:00,
2013-04-13 05:13:00,34.2,31.6,29.93,SSE,155,0.0,-999.0,87,0.00,,,0.00,Custom/Perl,2013-04-13 10:13:00,
2013-04-13 05:19:00,34.3,31.7,29.93,SSE,155,0.0,-999.0,87,0.00,,,0.00,Custom/Perl,2013-04-13 10:19:00,
2013-04-13 05:24:00,34.2,31.6,29.93,SSE,155,0.0,-999.0,87,0.00,,,0.00,Custom/Perl,2013-04-13 10:24:00,
2013-04-13 05:29:00,34.1,31.7,29.93,SSE,155,0.0,-999.0,88,0.00,,,0.00,Custom/Perl,2013-04-13 10:29:00,
2013-04-13 05:34:00,34.0,31.6,29.93,SSE,155,0.0,-999.0,88,0.00,,,0.00,Custom/Perl,2013-04-13 10:34:00,
2013-04-13 05:40:00,33.7,31.1,29.93,SSE,155,0.0,-999.0,87,0.00,,,0.00,Custom/Perl,2013-04-13 10:40:00,
2013-04-13 05:46:00,33.5,31.1,29.93,SSE,155,0.0,-999.0,88,0.00,,,0.00,Custom/Perl,2013-04-13 10:46:00,
2013-04-13 05:51:00,33.3,30.9,29.92,SSE,155,0.0,-999.0,88,0.00,,,0.00,Custom/Perl,2013-04-13 10:51:00,
2013-04-13 05:57:00,32.9,30.5,29.92,SSE,155,0.0,-999.0,88,0.00,,,0.00,Custom/Perl,2013-04-13 10:57:00,
2013-04-13 06:02:00,32.4,30.0,29.92,SSE,155,0.0,-999.0,88,0.00,,,0.00,Custom/Perl,2013-04-13 11:02:00,
2013-04-13 06:07:00,32.1,29.9,29.93,SSE,155,0.0,-999.0,89,0.00,,,0.00,Custom/Perl,2013-04-13 11:07:00,
2013-04-13 06:13:00,31.6,29.6,29.93,SSE,155,0.0,-999.0,90,0.00,,,0.00,Custom/Perl,2013-04-13 11:13:00,
2013-04-13 06:18:00,31.2,29.2,29.93,SSE,155,0.0,-999.0,90,0.00,,,0.00,Custom/Perl,2013-04-13 11:18:00,
2013-04-13 06:24:00,30.9,29.1,29.93,SSE,155,0.0,-999.0,91,0.00,,,0.00,Custom/Perl,2013-04-13 11:24:00,
2013-04-13 06:29:00,30.9,29.3,29.93,SSE,155,0.0,-999.0,92,0.00,,,0.00,Custom/Perl,2013-04-13 11:29:00,
2013-04-13 06:34:00,30.7,29.1,29.93,SSE,155,0.0,-999.0,92,0.00,,,0.00,Custom/Perl,2013-04-13 11:34:00,
2013-04-13 06:41:00,30.8,29.2,29.93,SSE,155,0.0,-999.0,92,0.00,,,0.00,Custom/Perl,2013-04-13 11:41:00,
2013-04-13 06:46:00,30.8,29.2,29.93,SSE,155,0.0,-999.0,92,0.00,,,0.00,Custom/Perl,2013-04-13 11:46:00,
2013-04-13 06:51:00,30.5,28.7,29.94,SSE,155,0.0,-999.0,91,0.00,,,0.00,Custom/Perl,2013-04-13 11:51:00,
2013-04-13 06:56:00,30.2,28.4,29.94,SSE,155,0.0,-999.0,91,0.00,,,0.00,Custom/Perl,2013-04-13 11:56:00,
2013-04-13 07:01:00,29.9,28.1,29.94,SSE,155,0.0,-999.0,91,0.00,,,0.00,Custom/Perl,2013-04-13 12:01:00,
2013-04-13 07:07:00,29.8,28.2,29.94,SSE,155,0.0,-999.0,92,0.00,,,0.00,Custom/Perl,2013-04-13 12:07:00,
2013-04-13 07:12:00,29.9,28.5,29.94,SSE,155,0.0,-999.0,93,0.00,,,0.00,Custom/Perl,2013-04-13 12:12:00,
2013-04-13 07:18:00,30.1,28.7,29.94,SSE,155,0.0,-999.0,93,0.00,,,0.00,Custom/Perl,2013-04-13 12:18:00,
2013-04-13 07:23:00,30.5,29.1,29.94,SSE,155,0.0,-999.0,93,0.00,,,0.00,Custom/Perl,2013-04-13 12:23:00,
2013-04-13 07:28:00,30.5,29.1,29.94,SSE,155,0.0,-999.0,93,0.00,,,0.00,Custom/Perl,2013-04-13 12:28:00,
2013-04-13 07:34:00,30.4,28.8,29.94,SSE,155,0.0,-999.0,92,0.00,,,0.00,Custom/Perl,2013-04-13 12:34:00,
2013-04-13 07:39:00,30.4,29.0,29.94,SSE,155,0.0,-999.0,93,0.00,,,0.00,Custom/Perl,2013-04-13 12:39:00,
2013-04-13 07:44:00,30.7,29.5,29.94,SSE,155,0.0,-999.0,94,0.00,,,0.00,Custom/Perl,2013-04-13 12:44:00,
2013-04-13 07:49:00,31.3,30.1,29.95,SSE,155,0.0,-999.0,94,0.00,,,0.00,Custom/Perl,2013-04-13 12:49:00,
2013-04-13 07:54:00,31.8,30.6,29.95,SSE,155,0.0,-999.0,94,0.00,,,0.00,Custom/Perl,2013-04-13 12:54:00,
2013-04-13 08:01:00,32.4,31.4,29.94,SSE,155,0.0,-999.0,95,0.00,,,0.00,Custom/Perl,2013-04-13 13:01:00,
2013-04-13 08:06:00,33.1,32.1,29.95,SSE,155,0.0,-999.0,95,0.00,,,0.00,Custom/Perl,2013-04-13 13:06:00,
2013-04-13 08:12:00,34.2,33.0,29.95,SSE,159,0.0,-999.0,94,0.00,,,0.00,Custom/Perl,2013-04-13 13:12:00,
2013-04-13 08:17:00,34.9,33.5,29.94,SSE,159,0.0,-999.0,93,0.00,,,0.00,Custom/Perl,2013-04-13 13:17:00,
2013-04-13 08:22:00,35.9,34.9,29.94,SSE,167,0.0,-999.0,95,0.00,,,0.00,Custom/Perl,2013-04-13 13:22:00,
2013-04-13 08:28:00,37.3,35.9,29.94,SSE,158,0.0,-999.0,93,0.00,,,0.00,Custom/Perl,2013-04-13 13:28:00,
2013-04-13 08:33:00,38.5,35.9,29.94,West,268,0.0,-999.0,87,0.00,,,0.00,Custom/Perl,2013-04-13 13:33:00,
2013-04-13 08:39:00,39.4,36.0,29.94,West,274,0.0,-999.0,83,0.00,,,0.00,Custom/Perl,2013-04-13 13:39:00,
2013-04-13 08:45:00,40.2,36.4,29.94,West,264,0.0,-999.0,81,0.00,,,0.00,Custom/Perl,2013-04-13 13:45:00,
2013-04-13 08:51:00,40.8,37.0,29.94,West,275,0.0,-999.0,81,0.00,,,0.00,Custom/Perl,2013-04-13 13:51:00,
2013-04-13 08:56:00,41.4,37.6,29.94,West,275,0.0,-999.0,81,0.00,,,0.00,Custom/Perl,2013-04-13 13:56:00,
2013-04-13 09:01:00,41.9,37.5,29.94,SW,227,0.0,-999.0,78,0.00,,,0.00,Custom/Perl,2013-04-13 14:01:00,
2013-04-13 09:07:00,42.4,37.6,29.93,WSW,253,0.0,-999.0,76,0.00,,,0.00,Custom/Perl,2013-04-13 14:07:00,
2013-04-13 09:12:00,42.7,37.5,29.93,West,278,0.0,-999.0,74,0.00,,,0.00,Custom/Perl,2013-04-13 14:12:00,
2013-04-13 09:17:00,43.0,38.0,29.93,West,276,0.0,-999.0,75,0.00,,,0.00,Custom/Perl,2013-04-13 14:17:00,
2013-04-13 09:23:00,43.3,38.1,29.93,SSW,208,0.0,-999.0,74,0.00,,,0.00,Custom/Perl,2013-04-13 14:23:00,
2013-04-13 09:28:00,43.5,37.9,29.93,West,276,0.0,-999.0,72,0.00,,,0.00,Custom/Perl,2013-04-13 14:28:00,
2013-04-13 09:33:00,43.5,37.9,29.93,West,275,0.0,-999.0,72,0.00,,,0.00,Custom/Perl,2013-04-13 14:33:00,
2013-04-13 09:39:00,43.8,38.4,29.93,WNW,290,0.0,-999.0,73,0.00,,,0.00,Custom/Perl,2013-04-13 14:39:00,
2013-04-13 09:44:00,44.1,38.5,29.93,West,280,0.0,-999.0,72,0.00,,,0.00,Custom/Perl,2013-04-13 14:44:00,
2013-04-13 09:49:00,44.3,38.5,29.92,West,279,0.0,-999.0,71,0.00,,,0.00,Custom/Perl,2013-04-13 14:49:00,
2013-04-13 09:54:00,44.4,38.0,29.92,NNE,12,0.0,-999.0,68,0.00,,,0.00,Custom/Perl,2013-04-13 14:54:00,
2013-04-13 10:00:00,44.7,38.7,29.92,WNW,299,0.0,-999.0,70,0.00,,,0.00,Custom/Perl,2013-04-13 15:00:00,
2013-04-13 10:05:00,45.1,38.7,29.92,WSW,243,0.0,-999.0,68,0.00,,,0.00,Custom/Perl,2013-04-13 15:05:00,
2013-04-13 10:10:00,45.6,39.0,29.92,WNW,299,0.0,-999.0,67,0.00,,,0.00,Custom/Perl,2013-04-13 15:10:00,
2013-04-13 10:16:00,46.1,39.9,29.92,WSW,249,0.0,-999.0,69,0.00,,,0.00,Custom/Perl,2013-04-13 15:16:00,
2013-04-13 10:21:00,46.9,40.3,29.92,NNW,337,0.0,-999.0,67,0.00,,,0.00,Custom/Perl,2013-04-13 15:21:00,
2013-04-13 10:26:00,47.2,40.4,29.91,West,280,0.0,-999.0,66,0.00,,,0.00,Custom/Perl,2013-04-13 15:26:00,
2013-04-13 10:32:00,47.9,40.5,29.91,West,277,1.0,-999.0,63,0.00,,,0.00,Custom/Perl,2013-04-13 15:32:00,
2013-04-13 10:38:00,48.4,41.0,29.91,SE,146,1.0,-999.0,63,0.00,,,0.00,Custom/Perl,2013-04-13 15:38:00,
2013-04-13 10:43:00,48.7,41.5,29.91,WSW,257,1.0,-999.0,64,0.00,,,0.00,Custom/Perl,2013-04-13 15:43:00,
2013-04-13 10:48:00,48.9,41.7,29.90,ESE,105,0.0,-999.0,64,0.00,,,0.00,Custom/Perl,2013-04-13 15:48:00,
2013-04-13 10:53:00,49.4,42.2,29.90,SE,132,3.0,-999.0,64,0.00,,,0.00,Custom/Perl,2013-04-13 15:53:00,
2013-04-13 10:58:00,50.0,42.4,29.90,SSW,198,1.0,-999.0,62,0.00,,,0.00,Custom/Perl,2013-04-13 15:58:00,
2013-04-13 11:04:00,50.3,42.7,29.90,NNW,342,1.0,-999.0,62,0.00,,,0.00,Custom/Perl,2013-04-13 16:04:00,
2013-04-13 11:09:00,50.5,43.1,29.90,SW,214,5.0,-999.0,63,0.00,,,0.00,Custom/Perl,2013-04-13 16:09:00,
2013-04-13 11:14:00,51.0,43.8,29.90,WNW,285,0.0,-999.0,64,0.00,,,0.00,Custom/Perl,2013-04-13 16:14:00,
2013-04-13 11:25:00,52.4,45.0,29.89,SW,217,0.0,-999.0,63,0.00,,,0.00,Custom/Perl,2013-04-13 16:25:00,
2013-04-13 11:30:00,53.3,45.1,29.89,West,274,0.0,-999.0,59,0.00,,,0.00,Custom/Perl,2013-04-13 16:30:00,
2013-04-13 11:35:00,53.9,46.5,29.88,NW,321,1.0,-999.0,63,0.00,,,0.00,Custom/Perl,2013-04-13 16:35:00,
2013-04-13 11:41:00,54.7,46.1,29.88,South,184,1.0,-999.0,57,0.00,,,0.00,Custom/Perl,2013-04-13 16:41:00,
2013-04-13 11:46:00,55.6,46.8,29.87,East,89,2.0,-999.0,56,0.00,,,0.00,Custom/Perl,2013-04-13 16:46:00,
2013-04-13 11:52:00,56.2,46.8,29.87,SSE,165,1.0,-999.0,53,0.00,,,0.00,Custom/Perl,2013-04-13 16:52:00,
2013-04-13 11:57:00,56.2,46.2,29.87,WSW,239,0.0,-999.0,50,0.00,,,0.00,Custom/Perl,2013-04-13 16:57:00,
2013-04-13 12:02:00,56.3,46.1,29.86,SSW,200,4.0,-999.0,49,0.00,,,0.00,Custom/Perl,2013-04-13 17:02:00,
2013-04-13 12:08:00,56.6,46.6,29.86,SW,219,3.0,-999.0,50,0.00,,,0.00,Custom/Perl,2013-04-13 17:08:00,
2013-04-13 12:13:00,56.4,46.6,29.86,South,186,0.0,-999.0,51,0.00,,,0.00,Custom/Perl,2013-04-13 17:13:00,
2013-04-13 12:18:00,56.3,46.1,29.85,SW,214,2.0,-999.0,49,0.00,,,0.00,Custom/Perl,2013-04-13 17:18:00,
2013-04-13 12:25:00,55.7,45.9,29.85,SSE,157,0.0,-999.0,51,0.00,,,0.00,Custom/Perl,2013-04-13 17:25:00,
2013-04-13 12:31:00,55.5,45.7,29.85,SSW,207,0.0,-999.0,51,0.00,,,0.00,Custom/Perl,2013-04-13 17:31:00,
2013-04-13 12:36:00,55.3,45.5,29.84,NNW,342,1.0,-999.0,51,0.00,,,0.00,Custom/Perl,2013-04-13 17:36:00,
2013-04-13 12:42:00,55.4,45.8,29.84,West,268,0.0,-999.0,52,0.00,,,0.00,Custom/Perl,2013-04-13 17:42:00,
2013-04-13 12:48:00,55.6,46.0,29.84,SE,141,3.0,-999.0,52,0.00,,,0.00,Custom/Perl,2013-04-13 17:48:00,
2013-04-13 12:53:00,55.7,46.3,29.83,SW,228,0.0,-999.0,53,0.00,,,0.00,Custom/Perl,2013-04-13 17:53:00,
2013-04-13 12:58:00,56.4,46.6,29.83,South,184,3.0,-999.0,51,0.00,,,0.00,Custom/Perl,2013-04-13 17:58:00,
2013-04-13 13:04:00,57.1,47.7,29.83,West,280,1.0,-999.0,53,0.00,,,0.00,Custom/Perl,2013-04-13 18:04:00,
2013-04-13 13:09:00,57.6,47.8,29.82,SSW,201,4.0,-999.0,51,0.00,,,0.00,Custom/Perl,2013-04-13 18:09:00,
2013-04-13 13:14:00,58.6,48.4,29.82,SW,226,3.0,-999.0,49,0.00,,,0.00,Custom/Perl,2013-04-13 18:14:00,
2013-04-13 13:19:00,58.7,48.3,29.82,SE,131,3.0,-999.0,48,0.00,,,0.00,Custom/Perl,2013-04-13 18:19:00,
2013-04-13 13:24:00,58.5,48.3,29.81,NE,42,2.0,-999.0,49,0.00,,,0.00,Custom/Perl,2013-04-13 18:24:00,
2013-04-13 13:27:00,58.8,49.2,29.81,West,277,1.0,-999.0,52,0.00,,,0.00,Custom/Perl,2013-04-13 18:27:00,
2013-04-13 13:28:00,59.2,49.2,29.81,WNW,294,2.0,-999.0,50,0.00,,,0.00,Custom/Perl,2013-04-13 18:28:00,
2013-04-13 13:33:00,60.0,50.2,29.81,WSW,257,0.0,-999.0,51,0.00,,,0.00,Custom/Perl,2013-04-13 18:33:00,
2013-04-13 13:38:00,60.5,49.7,29.80,SW,219,4.0,-999.0,46,0.00,,,0.00,Custom/Perl,2013-04-13 18:38:00,
2013-04-13 13:43:00,61.0,50.4,29.80,SSE,150,6.0,-999.0,47,0.00,,,0.00,Custom/Perl,2013-04-13 18:43:00,
2013-04-13 13:48:00,60.9,50.7,29.79,NW,312,1.0,-999.0,49,0.00,,,0.00,Custom/Perl,2013-04-13 18:48:00,
2013-04-13 13:54:00,61.4,50.8,29.79,SW,229,1.0,-999.0,47,0.00,,,0.00,Custom/Perl,2013-04-13 18:54:00,
2013-04-13 13:59:00,61.6,51.2,29.78,WSW,250,2.0,-999.0,48,0.00,,,0.00,Custom/Perl,2013-04-13 18:59:00,
2013-04-13 14:04:00,62.0,51.6,29.78,SW,226,1.0,-999.0,48,0.00,,,0.00,Custom/Perl,2013-04-13 19:04:00,
2013-04-13 14:09:00,62.1,51.3,29.77,WNW,295,2.0,-999.0,46,0.00,,,0.00,Custom/Perl,2013-04-13 19:09:00,
2013-04-13 14:15:00,62.6,52.0,29.77,WSW,238,0.0,-999.0,47,0.00,,,0.00,Custom/Perl,2013-04-13 19:15:00,
2013-04-13 14:20:00,63.1,52.3,29.77,South,189,2.0,-999.0,46,0.00,,,0.00,Custom/Perl,2013-04-13 19:20:00,
2013-04-13 14:25:00,64.0,53.2,29.76,SSW,203,2.0,-999.0,46,0.00,,,0.00,Custom/Perl,2013-04-13 19:25:00,
2013-04-13 14:30:00,64.3,52.9,29.76,SSE,155,5.0,-999.0,43,0.00,,,0.00,Custom/Perl,2013-04-13 19:30:00,
2013-04-13 14:36:00,63.7,52.5,29.75,WSW,249,1.0,-999.0,44,0.00,,,0.00,Custom/Perl,2013-04-13 19:36:00,
2013-04-13 14:41:00,64.2,52.6,29.75,SW,228,2.0,-999.0,42,0.00,,,0.00,Custom/Perl,2013-04-13 19:41:00,
2013-04-13 14:47:00,64.5,53.5,29.74,WSW,237,0.0,-999.0,45,0.00,,,0.00,Custom/Perl,2013-04-13 19:47:00,
2013-04-13 14:52:00,64.6,53.4,29.74,SSW,202,1.0,-999.0,44,0.00,,,0.00,Custom/Perl,2013-04-13 19:52:00,
2013-04-13 14:57:00,65.0,53.8,29.73,South,171,2.0,-999.0,44,0.00,,,0.00,Custom/Perl,2013-04-13 19:57:00,
2013-04-13 15:02:00,65.5,54.1,29.73,NNW,340,3.0,-999.0,43,0.00,,,0.00,Custom/Perl,2013-04-13 20:02:00,
2013-04-13 15:07:00,65.0,53.8,29.73,WNW,293,1.0,-999.0,44,0.00,,,0.00,Custom/Perl,2013-04-13 20:07:00,
2013-04-13 15:13:00,65.1,54.1,29.72,NW,308,1.0,-999.0,45,0.00,,,0.00,Custom/Perl,2013-04-13 20:13:00,
2013-04-13 15:18:00,66.0,55.2,29.72,NW,308,2.0,-999.0,46,0.00,,,0.00,Custom/Perl,2013-04-13 20:18:00,
2013-04-13 15:24:00,66.9,55.7,29.71,WSW,250,1.0,-999.0,44,0.00,,,0.00,Custom/Perl,2013-04-13 20:24:00,
2013-04-13 15:29:00,67.6,56.2,29.71,West,279,2.0,-999.0,43,0.00,,,0.00,Custom/Perl,2013-04-13 20:29:00,
2013-04-13 15:34:00,66.9,55.5,29.70,NE,40,2.0,-999.0,43,0.00,,,0.00,Custom/Perl,2013-04-13 20:34:00,
2013-04-13 15:39:00,67.3,55.7,29.70,North,352,2.0,-999.0,42,0.00,,,0.00,Custom/Perl,2013-04-13 20:39:00,
2013-04-13 15:45:00,68.1,56.7,29.70,South,174,1.0,-999.0,43,0.00,,,0.00,Custom/Perl,2013-04-13 20:45:00,
2013-04-13 15:50:00,67.9,56.3,29.69,SSW,197,4.0,-999.0,42,0.00,,,0.00,Custom/Perl,2013-04-13 20:50:00,
2013-04-13 15:55:00,67.7,56.1,29.69,WSW,244,0.0,-999.0,42,0.00,,,0.00,Custom/Perl,2013-04-13 20:55:00,
2013-04-13 16:00:00,67.9,56.3,29.68,SW,217,6.0,-999.0,42,0.00,,,0.00,Custom/Perl,2013-04-13 21:00:00,
2013-04-13 16:06:00,67.8,56.2,29.68,South,191,3.0,-999.0,42,0.00,,,0.00,Custom/Perl,2013-04-13 21:06:00,
2013-04-13 16:11:00,68.0,56.2,29.68,SW,221,3.0,-999.0,41,0.00,,,0.00,Custom/Perl,2013-04-13 21:11:00,
2013-04-13 16:17:00,68.2,56.8,29.67,NW,306,3.0,-999.0,43,0.00,,,0.00,Custom/Perl,2013-04-13 21:17:00,
2013-04-13 16:22:00,68.5,56.7,29.67,SW,231,2.0,-999.0,41,0.00,,,0.00,Custom/Perl,2013-04-13 21:22:00,
2013-04-13 16:27:00,68.2,56.2,29.67,South,190,3.0,-999.0,40,0.00,,,0.00,Custom/Perl,2013-04-13 21:27:00,
2013-04-13 16:32:00,67.3,55.9,29.67,ESE,123,5.0,-999.0,43,0.00,,,0.00,Custom/Perl,2013-04-13 21:32:00,
2013-04-13 16:38:00,67.1,56.1,29.66,WNW,292,2.0,-999.0,45,0.00,,,0.00,Custom/Perl,2013-04-13 21:38:00,
2013-04-13 16:43:00,67.6,56.0,29.66,SW,231,6.0,-999.0,42,0.00,,,0.00,Custom/Perl,2013-04-13 21:43:00,
2013-04-13 16:48:00,68.6,57.6,29.66,WSW,237,3.0,-999.0,45,0.00,,,0.00,Custom/Perl,2013-04-13 21:48:00,
2013-04-13 16:53:00,69.4,57.8,29.65,WSW,250,1.0,-999.0,42,0.00,,,0.00,Custom/Perl,2013-04-13 21:53:00,
2013-04-13 16:58:00,69.9,58.3,29.65,SSW,205,5.0,-999.0,42,0.00,,,0.00,Custom/Perl,2013-04-13 21:58:00,
2013-04-13 17:04:00,69.9,58.1,29.65,SW,227,2.0,-999.0,41,0.00,,,0.00,Custom/Perl,2013-04-13 22:04:00,
2013-04-13 17:09:00,70.1,58.3,29.65,SE,129,4.0,-999.0,41,0.00,,,0.00,Custom/Perl,2013-04-13 22:09:00,
2013-04-13 17:14:00,69.0,57.4,29.64,SSW,206,3.0,-999.0,42,0.00,,,0.00,Custom/Perl,2013-04-13 22:14:00,
2013-04-13 17:19:00,67.8,56.4,29.64,SSW,205,2.0,-999.0,43,0.00,,,0.00,Custom/Perl,2013-04-13 22:19:00,
2013-04-13 17:25:00,67.1,56.1,29.64,WSW,257,2.0,-999.0,45,0.00,,,0.00,Custom/Perl,2013-04-13 22:25:00,
2013-04-13 17:30:00,67.2,56.6,29.63,SW,218,4.0,-999.0,47,0.00,,,0.00,Custom/Perl,2013-04-13 22:30:00,
2013-04-13 17:35:00,66.9,55.9,29.63,SSW,213,9.0,-999.0,45,0.00,,,0.00,Custom/Perl,2013-04-13 22:35:00,
2013-04-13 17:40:00,66.3,55.5,29.63,SSW,196,3.0,-999.0,46,0.00,,,0.00,Custom/Perl,2013-04-13 22:40:00,
2013-04-13 17:46:00,65.7,55.1,29.62,SW,214,5.0,-999.0,47,0.00,,,0.00,Custom/Perl,2013-04-13 22:46:00,
2013-04-13 17:51:00,66.4,56.0,29.62,SSW,200,1.0,-999.0,48,0.00,,,0.00,Custom/Perl,2013-04-13 22:51:00,
2013-04-13 17:57:00,67.5,56.9,29.61,West,278,2.0,-999.0,47,0.00,,,0.00,Custom/Perl,2013-04-13 22:57:00,
2013-04-13 18:02:00,68.2,57.4,29.61,SSW,204,8.0,-999.0,46,0.00,,,0.00,Custom/Perl,2013-04-13 23:02:00,
2013-04-13 18:07:00,68.2,57.4,29.61,East,97,4.0,-999.0,46,0.00,,,0.00,Custom/Perl,2013-04-13 23:07:00,
2013-04-13 18:13:00,68.3,57.5,29.60,SSW,206,8.0,-999.0,46,0.00,,,0.00,Custom/Perl,2013-04-13 23:13:00,
2013-04-13 18:18:00,68.5,57.7,29.60,SSE,161,4.0,-999.0,46,0.00,,,0.00,Custom/Perl,2013-04-13 23:18:00,
2013-04-13 18:23:00,68.5,57.9,29.60,WSW,242,1.0,-999.0,47,0.00,,,0.00,Custom/Perl,2013-04-13 23:23:00,
2013-04-13 18:28:00,68.6,57.8,29.60,SSW,194,3.0,-999.0,46,0.00,,,0.00,Custom/Perl,2013-04-13 23:28:00,
2013-04-13 18:34:00,68.3,57.7,29.59,SW,229,1.0,-999.0,47,0.00,,,0.00,Custom/Perl,2013-04-13 23:34:00,
2013-04-13 18:39:00,68.0,57.4,29.59,SSW,207,7.0,-999.0,47,0.00,,,0.00,Custom/Perl,2013-04-13 23:39:00,
2013-04-13 18:44:00,68.0,57.4,29.59,SW,221,1.0,-999.0,47,0.00,,,0.00,Custom/Perl,2013-04-13 23:44:00,
2013-04-13 18:49:00,68.2,57.6,29.59,SSW,208,2.0,-999.0,47,0.00,,,0.00,Custom/Perl,2013-04-13 23:49:00,
2013-04-13 18:55:00,68.3,57.7,29.59,ENE,61,2.0,-999.0,47,0.00,,,0.00,Custom/Perl,2013-04-13 23:55:00,
2013-04-13 19:00:00,68.1,57.7,29.59,SSW,202,0.0,-999.0,48,0.00,,,0.00,Custom/Perl,2013-04-14 00:00:00,
2013-04-13 19:05:00,68.0,57.6,29.59,WSW,254,1.0,-999.0,48,0.00,,,0.00,Custom/Perl,2013-04-14 00:05:00,
2013-04-13 19:11:00,67.4,57.2,29.59,SW,233,0.0,-999.0,49,0.00,,,0.00,Custom/Perl,2013-04-14 00:11:00,
2013-04-13 19:16:00,67.1,57.1,29.58,West,276,1.0,-999.0,50,0.00,,,0.00,Custom/Perl,2013-04-14 00:16:00,
2013-04-13 19:21:00,66.5,56.7,29.58,NW,326,1.0,-999.0,51,0.00,,,0.00,Custom/Perl,2013-04-14 00:21:00,
2013-04-13 19:26:00,65.8,56.2,29.58,WNW,290,1.0,-999.0,52,0.00,,,0.00,Custom/Perl,2013-04-14 00:26:00,
2013-04-13 19:32:00,65.0,55.6,29.58,West,265,1.0,-999.0,53,0.00,,,0.00,Custom/Perl,2013-04-14 00:32:00,
2013-04-13 19:37:00,64.2,55.0,29.58,WNW,297,1.0,-999.0,54,0.00,,,0.00,Custom/Perl,2013-04-14 00:37:00,
2013-04-13 19:42:00,63.6,54.6,29.58,West,267,0.0,-999.0,55,0.00,,,0.00,Custom/Perl,2013-04-14 00:42:00,
2013-04-13 19:48:00,63.1,54.3,29.57,West,262,1.0,-999.0,56,0.00,,,0.00,Custom/Perl,2013-04-14 00:48:00,
2013-04-13 19:53:00,62.7,54.1,29.57,West,270,0.0,-999.0,57,0.00,,,0.00,Custom/Perl,2013-04-14 00:53:00,
2013-04-13 19:58:00,62.3,53.9,29.57,WNW,283,0.0,-999.0,58,0.00,,,0.00,Custom/Perl,2013-04-14 00:58:00,
2013-04-13 20:03:00,61.9,53.7,29.57,NNW,334,0.0,-999.0,59,0.00,,,0.00,Custom/Perl,2013-04-14 01:03:00,
2013-04-13 20:08:00,61.7,53.5,29.57,West,280,0.0,-999.0,59,0.00,,,0.00,Custom/Perl,2013-04-14 01:08:00,
2013-04-13 20:14:00,61.6,53.6,29.57,West,273,0.0,-999.0,60,0.00,,,0.00,Custom/Perl,2013-04-14 01:14:00,
2013-04-13 20:19:00,61.3,53.3,29.57,WSW,245,0.0,-999.0,60,0.00,,,0.00,Custom/Perl,2013-04-14 01:19:00,
2013-04-13 20:24:00,61.1,53.3,29.57,WNW,290,1.0,-999.0,61,0.00,,,0.00,Custom/Perl,2013-04-14 01:24:00,
2013-04-13 20:29:00,60.8,53.0,29.58,WSW,257,1.0,-999.0,61,0.00,,,0.00,Custom/Perl,2013-04-14 01:29:00,
2013-04-13 20:34:00,60.6,52.8,29.58,WSW,247,0.0,-999.0,61,0.00,,,0.00,Custom/Perl,2013-04-14 01:34:00,
2013-04-13 20:40:00,60.3,52.7,29.58,WNW,295,0.0,-999.0,62,0.00,,,0.00,Custom/Perl,2013-04-14 01:40:00,
2013-04-13 20:45:00,60.2,52.6,29.58,West,278,1.0,-999.0,62,0.00,,,0.00,Custom/Perl,2013-04-14 01:45:00,
2013-04-13 20:50:00,60.1,52.7,29.59,NW,324,0.0,-999.0,63,0.00,,,0.00,Custom/Perl,2013-04-14 01:50:00,
2013-04-13 20:55:00,60.1,52.7,29.59,South,173,0.0,-999.0,63,0.00,,,0.00,Custom/Perl,2013-04-14 01:55:00,
2013-04-13 21:00:00,60.1,52.7,29.59,West,269,0.0,-999.0,63,0.00,,,0.00,Custom/Perl,2013-04-14 02:00:00,
2013-04-13 21:06:00,60.0,52.8,29.59,WSW,240,0.0,-999.0,64,0.00,,,0.00,Custom/Perl,2013-04-14 02:06:00,
2013-04-13 21:11:00,59.9,52.7,29.58,West,259,0.0,-999.0,64,0.00,,,0.00,Custom/Perl,2013-04-14 02:11:00,
2013-04-13 21:16:00,59.8,52.8,29.58,WSW,241,0.0,-999.0,65,0.00,,,0.00,Custom/Perl,2013-04-14 02:16:00,
2013-04-13 21:22:00,59.7,52.7,29.58,West,271,0.0,-999.0,65,0.00,,,0.00,Custom/Perl,2013-04-14 02:22:00,
2013-04-13 21:27:00,59.6,52.6,29.58,SW,235,1.0,-999.0,65,0.00,,,0.00,Custom/Perl,2013-04-14 02:27:00,
2013-04-13 21:32:00,59.6,52.6,29.58,WNW,290,0.0,-999.0,65,0.00,,,0.00,Custom/Perl,2013-04-14 02:32:00,
2013-04-13 21:38:00,59.4,52.6,29.59,West,262,0.0,-999.0,66,0.00,,,0.00,Custom/Perl,2013-04-14 02:38:00,
2013-04-13 21:43:00,59.2,52.4,29.59,WSW,256,0.0,-999.0,66,0.00,,,0.00,Custom/Perl,2013-04-14 02:43:00,
2013-04-13 21:48:00,59.0,52.2,29.59,WSW,255,0.0,-999.0,66,0.00,,,0.00,Custom/Perl,2013-04-14 02:48:00,
2013-04-13 21:53:00,58.6,52.0,29.59,West,274,0.0,-999.0,67,0.00,,,0.00,Custom/Perl,2013-04-14 02:53:00,
2013-04-13 21:59:00,58.4,52.0,29.58,West,272,0.0,-999.0,68,0.00,,,0.00,Custom/Perl,2013-04-14 02:59:00,
2013-04-13 22:04:00,58.3,51.9,29.58,WNW,285,0.0,-999.0,68,0.00,,,0.00,Custom/Perl,2013-04-14 03:04:00,
2013-04-13 22:09:00,58.3,51.9,29.58,NNW,329,0.0,-999.0,68,0.00,,,0.00,Custom/Perl,2013-04-14 03:09:00,
2013-04-13 22:14:00,58.0,51.6,29.58,SSW,206,3.0,-999.0,68,0.00,,,0.00,Custom/Perl,2013-04-14 03:14:00,
2013-04-13 22:19:00,57.9,51.5,29.58,SW,228,0.0,-999.0,68,0.00,,,0.00,Custom/Perl,2013-04-14 03:19:00,
2013-04-13 22:25:00,57.8,51.4,29.59,NNE,20,0.0,-999.0,68,0.00,,,0.00,Custom/Perl,2013-04-14 03:25:00,
2013-04-13 22:30:00,57.7,51.3,29.59,SSW,199,0.0,-999.0,68,0.00,,,0.00,Custom/Perl,2013-04-14 03:30:00,
2013-04-13 22:35:00,57.4,51.2,29.59,WSW,239,0.0,-999.0,69,0.00,,,0.00,Custom/Perl,2013-04-14 03:35:00,
2013-04-13 22:40:00,57.4,51.2,29.59,NW,309,1.0,-999.0,69,0.00,,,0.00,Custom/Perl,2013-04-14 03:40:00,
2013-04-13 22:46:00,57.2,51.0,29.59,West,266,0.0,-999.0,69,0.00,,,0.00,Custom/Perl,2013-04-14 03:46:00,
2013-04-13 22:51:00,57.1,50.9,29.59,West,269,0.0,-999.0,69,0.00,,,0.00,Custom/Perl,2013-04-14 03:51:00,
2013-04-13 22:56:00,56.9,50.9,29.58,SSW,201,0.0,-999.0,70,0.00,,,0.00,Custom/Perl,2013-04-14 03:56:00,
2013-04-13 23:00:00,56.9,50.9,29.58,West,268,0.0,-999.0,70,0.00,,,0.00,Custom/Perl,2013-04-14 04:00:00,
2013-04-13 23:01:00,56.9,50.9,29.58,WNW,291,0.0,-999.0,70,0.00,,,0.00,Custom/Perl,2013-04-14 04:01:00,
2013-04-13 23:05:00,56.8,50.8,29.58,West,278,0.0,-999.0,70,0.00,,,0.00,Custom/Perl,2013-04-14 04:05:00,
2013-04-13 23:10:00,56.6,50.6,29.58,SW,226,0.0,-999.0,70,0.00,,,0.00,Custom/Perl,2013-04-14 04:10:00,
2013-04-13 23:16:00,56.6,50.6,29.57,WNW,293,0.0,-999.0,70,0.00,,,0.00,Custom/Perl,2013-04-14 04:16:00,
2013-04-13 23:21:00,56.5,50.5,29.57,WNW,303,0.0,-999.0,70,0.00,,,0.00,Custom/Perl,2013-04-14 04:21:00,
2013-04-13 23:26:00,56.5,50.7,29.57,WNW,293,0.0,-999.0,71,0.00,,,0.00,Custom/Perl,2013-04-14 04:26:00,
2013-04-13 23:31:00,56.2,50.4,29.56,WNW,299,1.0,-999.0,71,0.00,,,0.00,Custom/Perl,2013-04-14 04:31:00,
2013-04-13 23:37:00,56.1,50.5,29.56,SW,230,1.0,-999.0,72,0.00,,,0.00,Custom/Perl,2013-04-14 04:37:00,
2013-04-13 23:42:00,56.0,50.4,29.56,NW,325,0.0,-999.0,72,0.00,,,0.00,Custom/Perl,2013-04-14 04:42:00,
2013-04-13 23:47:00,55.7,50.3,29.56,WSW,243,0.0,-999.0,73,0.00,,,0.00,Custom/Perl,2013-04-14 04:47:00,
2013-04-13 23:53:00,55.5,50.1,29.55,NW,313,1.0,-999.0,73,0.00,,,0.00,Custom/Perl,2013-04-14 04:53:00,
2013-04-13 23:59:00,55.4,50.0,29.55,WSW,245,0.0,-999.0,73,0.00,,,0.00,Custom/Perl,2013-04-14 04:59:00,